createdAt,value
2019-05-07T00:02:02.727Z,8.77
2019-05-07T00:04:07.234Z,5.47
2019-05-07T00:06:12.375Z,7.90
2019-05-07T00:08:16.512Z,9.17
2019-05-07T00:10:21.799Z,12.57
2019-05-07T00:12:25.956Z,4.60
2019-05-07T00:14:29.855Z,15.17
2019-05-07T00:16:33.728Z,12.77
2019-05-07T00:18:37.585Z,9.10
2019-05-07T00:20:43.064Z,18.63
2019-05-07T00:22:47.369Z,9.17
2019-05-07T00:24:52.135Z,7.57
2019-05-07T00:26:56.312Z,9.03
2019-05-07T00:29:02.272Z,6.73
2019-05-07T00:31:06.661Z,10.80
2019-05-07T00:33:13.177Z,8.07
2019-05-07T00:35:22.556Z,13.27
2019-05-07T00:37:32.257Z,10.47
2019-05-07T00:39:42.305Z,10.10
2019-05-07T00:41:48.290Z,12.07
2019-05-07T00:43:53.743Z,13.13
2019-05-07T00:45:59.223Z,9.47
2019-05-07T00:48:04.849Z,9.33
2019-05-07T00:50:13.303Z,6.07
2019-05-07T00:52:19.251Z,13.93
2019-05-07T00:54:23.219Z,10.30
2019-05-07T00:56:27.126Z,11.03
2019-05-07T00:58:32.086Z,11.37
2019-05-07T01:00:36.172Z,7.67
2019-05-07T01:02:40.047Z,6.50
2019-05-07T01:04:46.761Z,8.23
2019-05-07T01:06:52.992Z,7.73
2019-05-07T01:08:57.615Z,6.30
2019-05-07T01:11:02.295Z,7.03
2019-05-07T01:13:06.429Z,6.13
2019-05-07T01:15:12.667Z,7.47
2019-05-07T01:17:15.943Z,10.93
2019-05-07T01:19:21.817Z,10.23
2019-05-07T01:21:26.397Z,5.23
2019-05-07T01:23:32.119Z,12.30
2019-05-07T01:25:35.825Z,8.30
2019-05-07T01:27:39.701Z,9.73
2019-05-07T01:29:45.349Z,10.47
2019-05-07T01:31:55.461Z,13.00
2019-05-07T01:34:07.817Z,6.67
2019-05-07T01:36:16.204Z,9.03
2019-05-07T01:38:20.120Z,7.47
2019-05-07T01:40:23.984Z,6.07
2019-05-07T01:42:27.875Z,8.93
2019-05-07T01:44:32.567Z,5.07
2019-05-07T01:46:43.717Z,9.03
2019-05-07T01:48:48.020Z,7.80
2019-05-07T01:50:52.527Z,9.93
2019-05-07T01:52:56.759Z,9.00
2019-05-07T01:55:02.985Z,11.33
2019-05-07T01:57:06.202Z,6.83
2019-05-07T01:59:12.059Z,9.33
2019-05-07T02:01:15.958Z,6.60
2019-05-07T02:03:32.620Z,15.77
2019-05-07T02:05:42.286Z,10.50
2019-05-07T02:07:47.230Z,9.23
2019-05-07T02:10:02.804Z,6.53
2019-05-07T02:12:08.363Z,11.33
2019-05-07T02:14:13.655Z,7.50
2019-05-07T02:16:17.899Z,8.20
2019-05-07T02:18:21.876Z,12.17
2019-05-07T02:20:26.014Z,9.73
2019-05-07T02:22:31.855Z,6.97
2019-05-07T02:24:35.766Z,11.60
2019-05-07T02:26:39.980Z,12.80
2019-05-07T02:28:43.985Z,10.23
2019-05-07T02:30:48.091Z,8.10
2019-05-07T02:32:54.011Z,5.50
2019-05-07T02:34:57.639Z,15.10
2019-05-07T02:37:03.986Z,9.60
2019-05-07T02:39:19.167Z,7.27
2019-05-07T02:41:24.929Z,7.33
2019-05-07T02:43:29.071Z,9.67
2019-05-07T02:45:53.580Z,8.87
2019-05-07T02:47:57.454Z,5.20
2019-05-07T02:50:03.465Z,8.00
2019-05-07T02:52:15.054Z,9.50
2019-05-07T02:54:26.988Z,10.73
2019-05-07T02:56:33.312Z,8.97
2019-05-07T02:58:37.162Z,8.87
2019-05-07T03:00:43.465Z,8.40
2019-05-07T03:02:47.722Z,8.57
2019-05-07T03:04:53.257Z,8.93
2019-05-07T03:06:57.750Z,11.77
2019-05-07T03:09:03.213Z,7.63
2019-05-07T03:11:07.392Z,10.17
2019-05-07T03:13:13.719Z,7.77
2019-05-07T03:15:17.144Z,9.33
2019-05-07T03:17:24.232Z,12.17
2019-05-07T03:19:27.301Z,12.87
2019-05-07T03:21:49.261Z,9.97
2019-05-07T03:24:03.409Z,7.10
2019-05-07T03:26:13.592Z,7.30
2019-05-07T03:28:16.932Z,8.53
2019-05-07T03:30:25.986Z,8.07
2019-05-07T03:32:39.347Z,15.77
2019-05-07T03:34:47.050Z,13.73
2019-05-07T03:36:56.669Z,8.37
2019-05-07T03:38:58.105Z,10.37
2019-05-07T03:41:03.693Z,8.97
2019-05-07T03:43:07.505Z,7.73
2019-05-07T03:45:29.796Z,8.30
2019-05-07T03:47:38.134Z,9.53
2019-05-07T03:49:42.956Z,7.13
2019-05-07T03:51:47.173Z,10.67
2019-05-07T03:53:53.426Z,12.63
2019-05-07T03:55:56.708Z,12.53
2019-05-07T03:58:03.228Z,12.93
2019-05-07T04:00:08.519Z,13.23
2019-05-07T04:02:14.206Z,11.33
2019-05-07T04:04:17.968Z,11.93
2019-05-07T04:06:23.401Z,10.73
2019-05-07T04:08:27.609Z,10.57
2019-05-07T04:10:33.864Z,7.73
2019-05-07T04:12:37.261Z,11.83
2019-05-07T04:14:43.207Z,6.73
2019-05-07T04:16:46.814Z,9.77
2019-05-07T04:18:53.104Z,11.77
2019-05-07T04:20:56.470Z,8.77
2019-05-07T04:23:03.985Z,10.63
2019-05-07T04:25:25.078Z,13.98
2019-05-07T04:27:44.175Z,11.53
2019-05-07T04:29:45.076Z,7.83
2019-05-07T04:31:49.164Z,6.37
2019-05-07T04:33:53.534Z,9.23
2019-05-07T04:36:02.830Z,10.87
2019-05-07T04:38:07.297Z,14.07
2019-05-07T04:40:13.518Z,7.63
2019-05-07T04:42:17.693Z,12.50
2019-05-07T04:44:23.531Z,7.90
2019-05-07T04:46:27.343Z,11.93
2019-05-07T04:48:33.766Z,12.00
2019-05-07T04:50:43.608Z,10.23
2019-05-07T04:52:44.180Z,11.83
2019-05-07T04:54:48.184Z,8.53
2019-05-07T04:56:53.167Z,8.10
2019-05-07T04:58:57.424Z,9.80
2019-05-07T05:01:03.217Z,14.57
2019-05-07T05:03:08.611Z,6.93
2019-05-07T05:05:13.552Z,9.13
2019-05-07T05:07:17.650Z,7.13
2019-05-07T05:09:23.327Z,8.63
2019-05-07T05:11:27.568Z,7.30
2019-05-07T05:13:33.458Z,7.73
2019-05-07T05:15:37.895Z,10.43
2019-05-07T05:17:50.134Z,9.43
2019-05-07T05:19:48.341Z,10.27
2019-05-07T05:21:54.041Z,9.00
2019-05-07T05:24:02.087Z,9.30
2019-05-07T05:26:06.399Z,9.23
2019-05-07T05:28:12.422Z,7.13
2019-05-07T05:30:18.373Z,8.60
2019-05-07T05:32:22.757Z,9.57
2019-05-07T05:34:27.135Z,7.77
2019-05-07T05:36:33.042Z,12.80
2019-05-07T05:38:36.795Z,17.37
2019-05-07T05:40:42.683Z,10.40
2019-05-07T05:42:52.480Z,13.40
2019-05-07T05:44:56.694Z,10.17
2019-05-07T05:47:02.393Z,7.97
2019-05-07T05:49:06.547Z,9.50
2019-05-07T05:51:22.776Z,10.60
2019-05-07T05:53:34.209Z,11.03
2019-05-07T05:55:38.424Z,7.27
2019-05-07T05:57:43.861Z,10.83
2019-05-07T05:59:54.465Z,11.90
2019-05-07T06:02:12.879Z,8.80
2019-05-07T06:04:18.523Z,9.03
2019-05-07T06:06:42.361Z,7.47
2019-05-07T06:08:52.517Z,12.80
2019-05-07T06:11:02.285Z,9.60
2019-05-07T06:13:12.398Z,11.27
2019-05-07T06:15:22.223Z,7.30
2019-05-07T06:17:42.975Z,7.37
2019-05-07T06:19:51.857Z,8.13
2019-05-07T06:22:03.683Z,10.20
2019-05-07T06:24:09.328Z,5.17
2019-05-07T06:26:13.543Z,7.27
2019-05-07T06:28:17.442Z,7.80
2019-05-07T06:30:22.701Z,8.10
2019-05-07T06:32:26.808Z,4.77
2019-05-07T06:34:31.619Z,7.63
2019-05-07T06:36:37.362Z,8.93
2019-05-07T06:38:43.004Z,7.60
2019-05-07T06:40:54.693Z,8.43
2019-05-07T06:43:15.592Z,11.00
2019-05-07T06:45:22.745Z,10.33
2019-05-07T06:47:27.089Z,5.63
2019-05-07T06:49:32.406Z,8.77
2019-05-07T06:51:36.629Z,6.77
2019-05-07T06:53:42.223Z,10.13
2019-05-07T06:55:46.391Z,8.60
2019-05-07T06:57:50.402Z,7.00
2019-05-07T07:00:12.209Z,3.70
2019-05-07T07:02:34.356Z,13.80
2019-05-07T07:04:42.250Z,8.80
2019-05-07T07:06:52.350Z,6.13
2019-05-07T07:09:14.222Z,9.30
2019-05-07T07:11:22.834Z,7.60
2019-05-07T07:13:27.975Z,6.70
2019-05-07T07:15:32.204Z,6.13
2019-05-07T07:17:36.228Z,5.83
2019-05-07T07:19:42.652Z,5.90
2019-05-07T07:21:45.840Z,10.23
2019-05-07T07:23:49.842Z,6.27
2019-05-07T07:25:53.849Z,5.33
2019-05-07T07:27:57.956Z,8.30
2019-05-07T07:30:03.516Z,5.90
2019-05-07T07:32:09.246Z,6.37
2019-05-07T07:34:13.560Z,10.33
2019-05-07T07:36:17.977Z,8.07
2019-05-07T07:38:34.576Z,8.00
2019-05-07T07:40:43.500Z,9.77
2019-05-07T07:42:47.492Z,5.13
2019-05-07T07:44:53.148Z,4.83
2019-05-07T07:46:57.257Z,4.53
2019-05-07T07:49:07.876Z,7.63
2019-05-07T07:51:06.806Z,5.07
2019-05-07T07:53:12.763Z,3.53
2019-05-07T07:55:17.994Z,6.77
2019-05-07T07:57:39.924Z,5.47
2019-05-07T07:59:48.533Z,6.33
2019-05-07T08:01:57.151Z,8.67
2019-05-07T08:04:02.855Z,6.07
2019-05-07T08:06:06.799Z,5.03
2019-05-07T08:08:12.674Z,5.10
2019-05-07T08:10:16.968Z,5.80
2019-05-07T08:12:22.101Z,5.83
2019-05-07T08:14:26.412Z,6.03
2019-05-07T08:16:32.611Z,7.63
2019-05-07T08:18:35.940Z,5.37
2019-05-07T08:20:39.778Z,2.80
2019-05-07T08:22:43.639Z,9.93
2019-05-07T08:24:47.556Z,6.63
2019-05-07T08:26:51.911Z,5.63
2019-05-07T08:28:55.871Z,6.53
2019-05-07T08:31:07.482Z,3.47
2019-05-07T08:33:14.774Z,2.83
2019-05-07T08:35:38.020Z,3.60
2019-05-07T08:37:42.701Z,7.17
2019-05-07T08:39:46.792Z,6.03
2019-05-07T08:41:52.647Z,6.17
2019-05-07T08:44:10.670Z,4.27
2019-05-07T08:46:22.782Z,6.27
2019-05-07T08:48:34.328Z,8.37
2019-05-07T08:50:38.192Z,6.10
2019-05-07T08:52:42.130Z,5.67
2019-05-07T08:54:45.972Z,5.80
2019-05-07T08:56:52.674Z,8.93
2019-05-07T08:58:56.260Z,3.93
2019-05-07T09:01:00.126Z,6.30
2019-05-07T09:03:04.024Z,4.70
2019-05-07T09:05:09.342Z,1.97
2019-05-07T09:07:13.317Z,4.33
2019-05-07T09:09:17.202Z,5.07
2019-05-07T09:11:22.937Z,3.83
2019-05-07T09:13:26.885Z,6.30
2019-05-07T09:15:32.009Z,5.90
2019-05-07T09:17:36.441Z,3.47
2019-05-07T09:19:48.313Z,6.03
2019-05-07T09:21:46.083Z,7.67
2019-05-07T09:23:52.236Z,3.10
2019-05-07T09:25:55.836Z,4.57
2019-05-07T09:27:59.841Z,4.00
2019-05-07T09:30:22.109Z,2.13
2019-05-07T09:32:28.034Z,5.07
2019-05-07T09:34:33.671Z,7.07
2019-05-07T09:36:42.443Z,4.87
2019-05-07T09:38:56.772Z,3.80
2019-05-07T09:40:52.541Z,4.10
2019-05-07T09:42:56.762Z,2.57
2019-05-07T09:45:01.956Z,4.80
2019-05-07T09:47:06.207Z,4.07
2019-05-07T09:49:11.914Z,5.67
2019-05-07T09:51:15.757Z,3.27
2019-05-07T09:53:19.877Z,3.90
2019-05-07T09:55:24.081Z,5.07
2019-05-07T09:57:31.333Z,3.20
2019-05-07T09:59:33.730Z,3.87
2019-05-07T10:01:37.841Z,2.70
2019-05-07T10:03:42.964Z,2.03
2019-05-07T10:05:47.178Z,1.70
2019-05-07T10:07:52.614Z,4.17
2019-05-07T10:09:56.716Z,2.73
2019-05-07T10:12:05.137Z,5.87
2019-05-07T10:14:12.481Z,3.07
2019-05-07T10:16:18.271Z,3.00
2019-05-07T10:18:22.845Z,2.67
2019-05-07T10:20:27.411Z,2.53
2019-05-07T10:22:32.173Z,3.33
2019-05-07T10:24:36.556Z,3.33
2019-05-07T10:26:42.709Z,1.90
2019-05-07T10:28:46.302Z,6.13
2019-05-07T10:30:52.081Z,2.30
2019-05-07T10:32:56.158Z,3.00
2019-05-07T10:35:02.154Z,5.97
2019-05-07T10:37:05.605Z,4.27
2019-05-07T10:39:09.807Z,5.27
2019-05-07T10:41:13.923Z,4.73
2019-05-07T10:43:18.138Z,5.23
2019-05-07T10:45:42.029Z,3.17
2019-05-07T10:47:53.487Z,3.50
2019-05-07T10:50:15.619Z,6.40
2019-05-07T10:52:19.624Z,3.60
2019-05-07T10:54:23.839Z,5.07
2019-05-07T10:56:27.944Z,4.33
2019-05-07T10:58:32.180Z,3.37
2019-05-07T11:00:36.469Z,6.27
2019-05-07T11:02:42.457Z,2.63
2019-05-07T11:04:46.127Z,3.97
2019-05-07T11:06:52.162Z,6.60
2019-05-07T11:08:55.671Z,6.53
2019-05-07T11:10:59.674Z,3.70
2019-05-07T11:13:03.683Z,3.57
2019-05-07T11:15:08.360Z,3.40
2019-05-07T11:17:32.521Z,3.57
2019-05-07T11:19:35.875Z,5.07
2019-05-07T11:21:41.760Z,4.10
2019-05-07T11:23:45.526Z,2.50
2019-05-07T11:25:49.632Z,5.03
2019-05-07T11:27:53.744Z,4.83
2019-05-07T11:29:57.746Z,6.50
2019-05-07T11:32:01.967Z,2.90
2019-05-07T11:34:05.861Z,5.73
2019-05-07T11:36:10.292Z,3.23
2019-05-07T11:38:21.099Z,5.10
2019-05-07T11:40:20.153Z,9.67
2019-05-07T11:42:25.983Z,4.43
2019-05-07T11:44:32.116Z,3.47
2019-05-07T11:46:44.419Z,3.93
2019-05-07T11:48:50.180Z,2.47
2019-05-07T11:51:03.260Z,4.87
2019-05-07T11:53:05.663Z,4.57
2019-05-07T11:55:12.076Z,5.03
2019-05-07T11:57:16.247Z,4.07
2019-05-07T11:59:21.906Z,8.20
2019-05-07T12:01:25.773Z,2.63
2019-05-07T12:03:29.665Z,4.73
2019-05-07T12:05:33.815Z,2.47
2019-05-07T12:07:37.920Z,7.40
2019-05-07T12:09:42.025Z,4.40
2019-05-07T12:11:46.036Z,4.47
2019-05-07T12:13:50.038Z,5.07
2019-05-07T12:15:54.250Z,3.10
2019-05-07T12:17:58.258Z,4.53
2019-05-07T12:20:02.487Z,3.20
2019-05-07T12:22:07.019Z,5.93
2019-05-07T12:24:12.862Z,3.50
2019-05-07T12:26:16.737Z,5.10
2019-05-07T12:28:22.489Z,3.43
2019-05-07T12:30:42.802Z,7.10
2019-05-07T12:33:05.110Z,4.17
2019-05-07T12:35:12.625Z,4.00
2019-05-07T12:37:16.500Z,4.20
2019-05-07T12:39:21.919Z,5.97
2019-05-07T12:41:34.164Z,4.67
2019-05-07T12:43:38.558Z,6.57
2019-05-07T12:45:42.772Z,3.50
2019-05-07T12:47:46.772Z,2.60
2019-05-07T12:49:50.884Z,2.13
2019-05-07T12:51:56.526Z,4.77
2019-05-07T12:54:05.142Z,4.53
2019-05-07T12:56:09.258Z,8.77
2019-05-07T12:58:13.152Z,4.47
2019-05-07T13:00:36.300Z,4.43
2019-05-07T13:02:44.174Z,1.93
2019-05-07T13:04:47.492Z,6.37
2019-05-07T13:06:58.876Z,4.20
2019-05-07T13:09:02.980Z,3.23
2019-05-07T13:11:07.300Z,6.03
2019-05-07T13:13:12.346Z,4.73
2019-05-07T13:15:24.993Z,4.73
2019-05-07T13:17:22.524Z,6.20
2019-05-07T13:19:26.807Z,6.80
2019-05-07T13:21:31.950Z,4.27
2019-05-07T13:23:36.556Z,3.87
2019-05-07T13:25:42.761Z,6.33
2019-05-07T13:27:46.319Z,4.87
2019-05-07T13:29:52.952Z,4.60
2019-05-07T13:31:57.212Z,3.47
2019-05-07T13:34:03.040Z,5.73
2019-05-07T13:36:07.456Z,4.10
2019-05-07T13:38:14.546Z,3.87
2019-05-07T13:40:26.720Z,4.90
2019-05-07T13:42:32.374Z,6.83
2019-05-07T13:44:44.063Z,3.23
2019-05-07T13:46:49.473Z,2.83
2019-05-07T13:48:54.325Z,6.33
2019-05-07T13:50:58.628Z,5.63
2019-05-07T13:53:02.642Z,6.33
2019-05-07T13:55:08.076Z,4.07
2019-05-07T13:57:12.295Z,4.03
2019-05-07T13:59:16.307Z,4.67
2019-05-07T14:01:22.982Z,7.50
2019-05-07T14:03:27.381Z,9.43
2019-05-07T14:05:32.370Z,4.67
2019-05-07T14:07:38.166Z,4.10
2019-05-07T14:09:42.282Z,3.77
2019-05-07T14:11:46.382Z,3.10
2019-05-07T14:13:52.237Z,5.83
2019-05-07T14:16:06.989Z,5.83
2019-05-07T14:18:11.593Z,2.93
2019-05-07T14:20:16.395Z,7.00
2019-05-07T14:22:22.305Z,3.93
2019-05-07T14:24:26.090Z,4.97
2019-05-07T14:26:32.445Z,3.20
2019-05-07T14:28:35.739Z,3.97
2019-05-07T14:30:41.981Z,3.23
2019-05-07T14:32:52.764Z,5.63
2019-05-07T14:35:04.343Z,6.97
2019-05-07T14:37:13.005Z,2.07
2019-05-07T14:39:17.057Z,7.47
2019-05-07T14:41:22.908Z,4.00
2019-05-07T14:43:28.459Z,7.27
2019-05-07T14:45:32.735Z,5.23
2019-05-07T14:47:37.395Z,5.60
2019-05-07T14:49:41.522Z,2.67
2019-05-07T14:51:47.192Z,2.63
2019-05-07T14:53:51.261Z,4.93
2019-05-07T14:55:55.368Z,3.63
2019-05-07T14:57:59.375Z,2.60
2019-05-07T15:00:05.023Z,4.07
2019-05-07T15:02:09.234Z,4.03
2019-05-07T15:04:13.541Z,5.73
2019-05-07T15:06:17.650Z,2.30
2019-05-07T15:08:22.034Z,4.70
2019-05-07T15:10:26.060Z,3.23
2019-05-07T15:12:30.180Z,6.43
2019-05-07T15:14:34.189Z,7.30
2019-05-07T15:16:38.296Z,7.93
2019-05-07T15:18:44.451Z,3.53
2019-05-07T15:20:48.967Z,5.30
2019-05-07T15:23:15.203Z,4.60
2019-05-07T15:25:19.510Z,5.70
2019-05-07T15:27:23.969Z,2.87
2019-05-07T15:29:28.354Z,3.80
2019-05-07T15:31:36.641Z,3.63
2019-05-07T15:33:41.820Z,5.10
2019-05-07T15:35:46.093Z,5.27
2019-05-07T15:37:51.774Z,5.20
2019-05-07T15:39:55.745Z,4.87
2019-05-07T15:42:02.132Z,5.13
2019-05-07T15:44:06.116Z,3.17
2019-05-07T15:46:12.033Z,5.53
2019-05-07T15:48:15.662Z,7.20
2019-05-07T15:50:19.702Z,3.27
2019-05-07T15:52:43.646Z,6.00
2019-05-07T15:54:47.854Z,3.20
2019-05-07T15:56:53.604Z,5.43
2019-05-07T15:58:57.708Z,4.43
2019-05-07T16:01:02.202Z,4.77
2019-05-07T16:03:12.058Z,4.10
2019-05-07T16:05:16.589Z,4.00
2019-05-07T16:07:22.442Z,7.77
2019-05-07T16:09:27.776Z,4.30
2019-05-07T16:11:32.428Z,4.33
2019-05-07T16:13:38.399Z,4.43
2019-05-07T16:15:42.564Z,4.77
2019-05-07T16:17:52.181Z,5.67
2019-05-07T16:19:56.309Z,6.10
2019-05-07T16:22:03.764Z,7.07
2019-05-07T16:24:07.711Z,7.77
2019-05-07T16:26:12.965Z,8.03
2019-05-07T16:28:17.131Z,5.97
2019-05-07T16:30:22.854Z,4.60
2019-05-07T16:32:26.899Z,3.53
2019-05-07T16:34:32.596Z,6.03
2019-05-07T16:36:36.756Z,4.97
2019-05-07T16:38:41.976Z,3.83
2019-05-07T16:40:46.508Z,4.23
2019-05-07T16:42:52.419Z,4.10
2019-05-07T16:44:56.148Z,4.87
2019-05-07T16:47:00.166Z,3.67
2019-05-07T16:49:04.271Z,6.47
2019-05-07T16:51:08.281Z,3.27
2019-05-07T16:53:20.316Z,4.00
2019-05-07T16:55:18.024Z,3.97
2019-05-07T16:57:23.678Z,3.33
2019-05-07T16:59:27.788Z,6.63
2019-05-07T17:01:32.459Z,6.53
2019-05-07T17:03:38.257Z,3.97
2019-05-07T17:05:42.856Z,5.77
2019-05-07T17:07:54.975Z,8.03
2019-05-07T17:09:58.978Z,4.43
2019-05-07T17:12:04.728Z,6.37
2019-05-07T17:14:08.730Z,6.53
2019-05-07T17:16:12.737Z,7.07
2019-05-07T17:18:16.756Z,6.70
2019-05-07T17:20:21.982Z,9.37
2019-05-07T17:22:26.093Z,7.27
2019-05-07T17:24:30.137Z,7.30
2019-05-07T17:26:34.306Z,7.27
2019-05-07T17:28:38.310Z,7.50
2019-05-07T17:30:42.523Z,8.20
2019-05-07T17:32:46.733Z,9.60
2019-05-07T17:34:52.763Z,7.77
2019-05-07T17:36:56.385Z,14.10
2019-05-07T17:39:02.555Z,14.70
2019-05-07T17:41:13.751Z,10.00
2019-05-07T17:43:12.359Z,8.97
2019-05-07T17:45:16.496Z,8.73
2019-05-07T17:47:21.820Z,8.63
2019-05-07T17:49:26.160Z,8.37
2019-05-07T17:51:43.887Z,9.03
2019-05-07T17:53:57.581Z,8.93
2019-05-07T17:55:53.639Z,10.23
2019-05-07T17:57:57.644Z,9.40
2019-05-07T18:00:02.223Z,10.13
2019-05-07T18:02:08.011Z,9.10
2019-05-07T18:04:12.016Z,9.00
2019-05-07T18:06:16.026Z,9.67
2019-05-07T18:08:21.743Z,10.17
2019-05-07T18:10:25.882Z,9.50
2019-05-07T18:12:31.883Z,9.90
2019-05-07T18:14:35.428Z,8.50
2019-05-07T18:16:41.998Z,9.27
2019-05-07T18:18:46.308Z,9.93
2019-05-07T18:20:50.210Z,10.13
2019-05-07T18:22:54.321Z,11.70
2019-05-07T18:24:58.439Z,9.57
2019-05-07T18:27:03.870Z,9.63
2019-05-07T18:29:07.875Z,10.07
2019-05-07T18:31:12.599Z,8.87
2019-05-07T18:33:19.163Z,14.57
2019-05-07T18:35:23.211Z,10.30
2019-05-07T18:37:27.281Z,6.13
2019-05-07T18:39:32.381Z,9.73
2019-05-07T18:41:36.733Z,7.47
2019-05-07T18:43:42.144Z,8.93
2019-05-07T18:45:46.480Z,10.90
2019-05-07T18:47:51.695Z,14.47
2019-05-07T18:49:56.142Z,10.60
2019-05-07T18:52:00.012Z,10.53
2019-05-07T18:54:04.039Z,10.73
2019-05-07T18:56:08.046Z,11.10
2019-05-07T18:58:13.364Z,13.00
2019-05-07T19:00:22.166Z,11.43
2019-05-07T19:02:26.207Z,11.53
2019-05-07T19:04:30.886Z,9.63
2019-05-07T19:06:36.064Z,10.27
2019-05-07T19:08:42.090Z,10.60
2019-05-07T19:10:45.716Z,10.23
2019-05-07T19:12:49.712Z,13.90
2019-05-07T19:14:53.840Z,12.47
2019-05-07T19:16:57.939Z,12.07
2019-05-07T19:19:02.047Z,13.27
2019-05-07T19:21:06.864Z,12.80
2019-05-07T19:23:11.292Z,11.60
2019-05-07T19:25:15.240Z,10.33
2019-05-07T19:27:19.405Z,10.23
2019-05-07T19:29:23.622Z,11.23
2019-05-07T19:31:27.827Z,10.37
2019-05-07T19:33:35.622Z,9.97
2019-05-07T19:35:42.140Z,12.53
2019-05-07T19:37:48.044Z,15.57
2019-05-07T19:39:57.249Z,14.80
2019-05-07T19:42:02.617Z,15.70
2019-05-07T19:44:09.374Z,13.17
2019-05-07T19:46:16.456Z,13.50
2019-05-07T19:48:23.098Z,11.23
2019-05-07T19:50:27.143Z,12.40
2019-05-07T19:52:36.415Z,12.73
2019-05-07T19:54:42.999Z,12.10
2019-05-07T19:56:48.160Z,13.23
2019-05-07T19:58:52.596Z,10.60
2019-05-07T20:00:57.407Z,12.10
2019-05-07T20:03:03.407Z,10.87
2019-05-07T20:05:07.791Z,13.27
2019-05-07T20:07:12.264Z,10.80
2019-05-07T20:09:18.145Z,12.53
2019-05-07T20:11:31.821Z,11.87
2019-05-07T20:13:35.980Z,11.03
2019-05-07T20:15:42.589Z,11.33
2019-05-07T20:17:46.757Z,10.23
2019-05-07T20:19:52.636Z,13.80
2019-05-07T20:21:56.395Z,12.47
2019-05-07T20:24:01.884Z,14.23
2019-05-07T20:26:06.263Z,11.97
2019-05-07T20:28:12.576Z,11.33
2019-05-07T20:30:16.421Z,10.50
2019-05-07T20:32:24.581Z,11.07
2019-05-07T20:34:29.149Z,13.37
2019-05-07T20:36:33.153Z,11.70
2019-05-07T20:38:37.263Z,12.10
2019-05-07T20:40:42.403Z,15.70
2019-05-07T20:42:48.860Z,12.63
2019-05-07T20:44:53.991Z,10.77
2019-05-07T20:47:01.701Z,12.87
2019-05-07T20:49:05.295Z,10.73
2019-05-07T20:51:09.390Z,11.47
2019-05-07T20:53:13.600Z,12.80
2019-05-07T20:55:31.013Z,11.07
2019-05-07T20:57:35.335Z,11.17
2019-05-07T20:59:39.544Z,12.27
2019-05-07T21:01:43.662Z,12.67
2019-05-07T21:03:47.870Z,12.23
2019-05-07T21:05:54.946Z,11.00
2019-05-07T21:07:59.052Z,14.70
2019-05-07T21:10:03.378Z,11.93
2019-05-07T21:12:07.474Z,13.43
2019-05-07T21:14:12.181Z,12.33
2019-05-07T21:16:16.514Z,13.33
2019-05-07T21:18:22.945Z,13.10
2019-05-07T21:20:26.266Z,14.63
2019-05-07T21:22:31.975Z,13.77
2019-05-07T21:24:35.801Z,14.27
2019-05-07T21:26:42.146Z,11.87
2019-05-07T21:28:45.466Z,12.77
2019-05-07T21:30:51.936Z,11.97
2019-05-07T21:32:55.216Z,12.90
2019-05-07T21:34:59.227Z,16.07
2019-05-07T21:37:03.485Z,12.67
2019-05-07T21:39:08.463Z,15.30
2019-05-07T21:41:12.835Z,13.83
2019-05-07T21:43:17.089Z,13.80
2019-05-07T21:45:23.617Z,13.07
2019-05-07T21:47:26.650Z,13.63
2019-05-07T21:49:32.270Z,14.60
2019-05-07T21:51:36.395Z,14.80
2019-05-07T21:53:44.788Z,16.00
2019-05-07T21:55:59.960Z,15.17
2019-05-07T21:58:02.282Z,14.97
2019-05-07T22:00:16.484Z,16.87
2019-05-07T22:02:27.247Z,15.20
2019-05-07T22:04:31.458Z,16.37
2019-05-07T22:06:35.667Z,16.43
2019-05-07T22:08:39.781Z,17.07
2019-05-07T22:10:44.001Z,18.30
2019-05-07T22:12:48.097Z,18.07
2019-05-07T22:14:52.144Z,16.17
2019-05-07T22:16:56.423Z,15.40
2019-05-07T22:19:02.455Z,16.67
2019-05-07T22:21:06.069Z,16.53
2019-05-07T22:23:10.073Z,16.37
2019-05-07T22:25:14.172Z,16.93
2019-05-07T22:27:18.297Z,16.07
2019-05-07T22:29:22.753Z,12.83
2019-05-07T22:31:34.598Z,17.50
2019-05-07T22:33:59.193Z,15.83
2019-05-07T22:36:01.923Z,15.00
2019-05-07T22:38:07.686Z,15.50
2019-05-07T22:40:12.170Z,18.77
2019-05-07T22:42:16.544Z,16.40
2019-05-07T22:44:23.669Z,15.87
2019-05-07T22:46:25.979Z,17.83
2019-05-07T22:48:32.323Z,19.23
2019-05-07T22:50:35.640Z,18.13
2019-05-07T22:52:39.756Z,15.97
2019-05-07T22:54:43.856Z,19.50
2019-05-07T22:57:04.656Z,16.30
2019-05-07T22:59:08.668Z,16.63
2019-05-07T23:01:14.519Z,17.00
2019-05-07T23:03:18.627Z,19.70
2019-05-07T23:05:23.053Z,17.60
2019-05-07T23:07:27.251Z,17.07
2019-05-07T23:09:31.158Z,15.20
2019-05-07T23:11:35.362Z,18.00
2019-05-07T23:13:39.476Z,17.83
2019-05-07T23:15:43.892Z,16.33
2019-05-07T23:17:47.791Z,18.37
2019-05-07T23:19:53.004Z,18.97
2019-05-07T23:21:57.544Z,17.17
2019-05-07T23:24:01.553Z,17.47
2019-05-07T23:26:05.765Z,16.27
2019-05-07T23:28:09.671Z,16.00
2019-05-07T23:30:15.200Z,16.73
2019-05-07T23:32:19.421Z,17.03
2019-05-07T23:34:23.428Z,16.00
2019-05-07T23:36:27.742Z,15.50
2019-05-07T23:38:32.060Z,14.73
2019-05-07T23:40:46.913Z,18.47
2019-05-07T23:42:52.449Z,16.50
2019-05-07T23:44:56.667Z,18.63
2019-05-07T23:47:02.676Z,17.37
2019-05-07T23:49:06.320Z,20.00
2019-05-07T23:51:12.487Z,19.67
2019-05-07T23:53:16.070Z,16.37
2019-05-07T23:55:20.181Z,19.17
2019-05-07T23:57:24.184Z,16.67
2019-05-07T23:59:28.402Z,19.23
